createdAt,value
2019-03-26T00:01:22.882Z,21.56
2019-03-26T00:03:49.557Z,21.57
2019-03-26T00:06:16.197Z,21.57
2019-03-26T00:08:42.835Z,21.54
2019-03-26T00:11:09.499Z,21.50
2019-03-26T00:13:36.236Z,21.49
2019-03-26T00:16:02.883Z,21.49
2019-03-26T00:18:29.520Z,21.51
2019-03-26T00:20:56.196Z,21.49
2019-03-26T00:23:22.931Z,21.50
2019-03-26T00:25:49.572Z,21.48
2019-03-26T00:28:16.226Z,21.47
2019-03-26T00:30:42.859Z,21.47
2019-03-26T00:33:09.548Z,21.44
2019-03-26T00:35:36.259Z,21.45
2019-03-26T00:38:02.896Z,21.39
2019-03-26T00:40:29.716Z,21.39
2019-03-26T00:42:56.364Z,21.39
2019-03-26T00:48:10.387Z,21.42
2019-03-26T00:50:37.087Z,21.42
2019-03-26T00:53:03.736Z,21.38
2019-03-26T00:55:30.376Z,21.38
2019-03-26T00:57:57.029Z,21.36
2019-03-26T01:00:23.680Z,21.31
2019-03-26T01:02:50.329Z,21.30
2019-03-26T01:05:16.972Z,21.26
2019-03-26T01:07:43.605Z,21.26
2019-03-26T01:10:12.302Z,21.21
2019-03-26T01:12:36.965Z,21.21
2019-03-26T01:15:03.612Z,21.25
2019-03-26T01:17:30.248Z,21.21
2019-03-26T01:19:56.932Z,21.19
2019-03-26T01:22:23.567Z,21.17
2019-03-26T01:24:50.215Z,21.21
2019-03-26T01:27:16.843Z,21.16
2019-03-26T01:29:43.539Z,21.14
2019-03-26T01:32:10.178Z,21.15
2019-03-26T01:34:45.798Z,21.15
2019-03-26T01:37:03.503Z,21.13
2019-03-26T01:39:30.143Z,21.13
2019-03-26T01:41:56.796Z,21.10
2019-03-26T01:44:23.476Z,21.10
2019-03-26T01:46:50.106Z,21.09
2019-03-26T01:49:16.781Z,21.09
2019-03-26T01:51:43.420Z,21.08
2019-03-26T01:54:10.121Z,21.08
2019-03-26T01:56:36.764Z,21.03
2019-03-26T01:59:03.413Z,21.05
2019-03-26T02:01:30.068Z,21.02
2019-03-26T02:03:56.707Z,21.02
2019-03-26T02:06:23.386Z,21.03
2019-03-26T02:08:50.028Z,21.06
2019-03-26T02:11:16.707Z,21.06
2019-03-26T02:13:43.357Z,21.05
2019-03-26T02:16:10.004Z,21.03
2019-03-26T02:18:36.640Z,21.02
2019-03-26T02:21:03.314Z,21.01
2019-03-26T02:23:29.953Z,20.94
2019-03-26T02:25:56.595Z,20.96
2019-03-26T02:28:23.231Z,20.95
2019-03-26T02:30:50.018Z,20.95
2019-03-26T02:33:16.655Z,20.91
2019-03-26T02:35:43.274Z,20.92
2019-03-26T02:38:09.930Z,20.91
2019-03-26T02:40:36.568Z,20.87
2019-03-26T02:43:03.253Z,20.90
2019-03-26T02:45:29.981Z,20.81
2019-03-26T02:47:56.639Z,20.88
2019-03-26T02:50:23.388Z,20.82
2019-03-26T02:52:49.977Z,20.85
2019-03-26T02:55:16.623Z,20.85
2019-03-26T02:57:43.273Z,20.82
2019-03-26T03:00:09.907Z,20.84
2019-03-26T03:02:36.549Z,20.86
2019-03-26T03:05:03.213Z,20.82
2019-03-26T03:07:29.872Z,20.82
2019-03-26T03:09:56.515Z,20.78
2019-03-26T03:12:23.163Z,20.79
2019-03-26T03:14:49.815Z,20.76
2019-03-26T03:17:16.446Z,20.80
2019-03-26T03:19:43.083Z,20.75
2019-03-26T03:22:09.734Z,20.76
2019-03-26T03:24:36.383Z,20.72
2019-03-26T03:27:03.059Z,20.69
2019-03-26T03:29:29.761Z,20.70
2019-03-26T03:31:56.508Z,20.73
2019-03-26T03:34:23.089Z,20.71
2019-03-26T03:36:49.715Z,20.64
2019-03-26T03:39:16.451Z,20.63
2019-03-26T03:41:43.086Z,20.62
2019-03-26T03:44:09.729Z,20.64
2019-03-26T03:46:36.376Z,20.62
2019-03-26T03:49:03.024Z,20.57
2019-03-26T03:51:29.675Z,20.63
2019-03-26T03:53:56.337Z,20.65
2019-03-26T03:56:22.967Z,20.64
2019-03-26T03:58:49.595Z,20.57
2019-03-26T04:01:16.276Z,20.53
2019-03-26T04:03:42.921Z,20.56
2019-03-26T04:06:10.364Z,20.46
2019-03-26T04:08:36.269Z,20.25
2019-03-26T04:11:02.912Z,20.13
2019-03-26T04:13:29.651Z,20.01
2019-03-26T04:15:56.220Z,19.91
2019-03-26T04:18:22.839Z,19.99
2019-03-26T04:20:49.485Z,19.72
2019-03-26T04:23:16.169Z,19.55
2019-03-26T04:25:42.799Z,19.59
2019-03-26T04:28:09.443Z,19.66
2019-03-26T04:30:36.081Z,19.92
2019-03-26T04:33:02.740Z,20.03
2019-03-26T04:35:29.426Z,20.18
2019-03-26T04:37:56.078Z,20.20
2019-03-26T04:40:22.715Z,20.22
2019-03-26T04:42:49.371Z,20.29
2019-03-26T04:45:16.028Z,20.31
2019-03-26T04:47:42.675Z,20.39
2019-03-26T04:50:09.323Z,20.40
2019-03-26T04:52:35.970Z,20.30
2019-03-26T04:55:02.623Z,20.39
2019-03-26T04:57:29.276Z,20.38
2019-03-26T04:59:55.928Z,20.38
2019-03-26T05:02:22.609Z,20.39
2019-03-26T05:04:49.233Z,20.38
2019-03-26T05:07:15.879Z,20.39
2019-03-26T05:09:42.558Z,20.40
2019-03-26T05:12:09.197Z,20.52
2019-03-26T05:14:35.877Z,20.56
2019-03-26T05:17:02.506Z,20.65
2019-03-26T05:19:29.185Z,20.63
2019-03-26T05:21:55.876Z,20.79
2019-03-26T05:24:22.521Z,20.85
2019-03-26T05:26:49.170Z,20.92
2019-03-26T05:29:15.819Z,21.06
2019-03-26T05:31:42.460Z,21.16
2019-03-26T05:34:09.153Z,21.27
2019-03-26T05:36:35.798Z,21.43
2019-03-26T05:39:02.423Z,21.51
2019-03-26T05:41:29.066Z,21.61
2019-03-26T05:43:55.748Z,21.66
2019-03-26T05:46:22.436Z,21.80
2019-03-26T05:48:49.121Z,21.81
2019-03-26T05:51:15.782Z,21.87
2019-03-26T05:53:42.428Z,21.95
2019-03-26T05:56:09.067Z,22.00
2019-03-26T05:58:35.705Z,22.08
2019-03-26T06:01:02.351Z,22.22
2019-03-26T06:03:28.988Z,22.36
2019-03-26T06:05:55.694Z,22.44
2019-03-26T06:08:22.362Z,22.52
2019-03-26T06:10:49.075Z,22.70
2019-03-26T06:13:15.722Z,22.72
2019-03-26T06:15:42.360Z,22.83
2019-03-26T06:18:09.014Z,22.92
2019-03-26T06:20:35.648Z,22.97
2019-03-26T06:23:02.290Z,22.97
2019-03-26T06:25:28.929Z,23.13
2019-03-26T06:27:55.586Z,23.25
2019-03-26T06:30:22.225Z,23.23
2019-03-26T06:32:48.905Z,23.31
2019-03-26T06:35:15.580Z,23.39
2019-03-26T06:37:42.233Z,23.38
2019-03-26T06:40:08.885Z,23.49
2019-03-26T06:42:35.657Z,23.62
2019-03-26T06:45:02.302Z,23.63
2019-03-26T06:47:28.986Z,23.74
2019-03-26T06:49:56.738Z,23.66
2019-03-26T06:52:23.394Z,23.63
2019-03-26T06:54:51.703Z,23.76
2019-03-26T06:57:16.778Z,23.56
2019-03-26T06:59:43.414Z,23.66
2019-03-26T07:02:10.058Z,23.67
2019-03-26T07:04:36.713Z,23.79
2019-03-26T07:07:03.423Z,23.71
2019-03-26T07:09:30.056Z,23.84
2019-03-26T07:11:56.707Z,23.81
2019-03-26T07:14:23.473Z,23.83
2019-03-26T07:16:50.073Z,23.89
2019-03-26T07:19:16.791Z,23.91
2019-03-26T07:21:49.522Z,23.79
2019-03-26T07:24:10.014Z,23.92
2019-03-26T07:26:36.655Z,23.91
2019-03-26T07:29:03.340Z,23.94
2019-03-26T07:31:29.992Z,24.01
2019-03-26T07:33:56.662Z,23.82
2019-03-26T07:36:23.322Z,23.88
2019-03-26T07:38:50.029Z,23.91
2019-03-26T07:41:16.687Z,23.79
2019-03-26T07:43:43.340Z,23.92
2019-03-26T07:46:09.989Z,23.80
2019-03-26T07:48:36.690Z,23.87
2019-03-26T07:51:03.337Z,23.96
2019-03-26T07:53:29.974Z,24.09
2019-03-26T07:55:56.633Z,24.08
2019-03-26T07:58:23.304Z,24.20
2019-03-26T08:00:49.963Z,24.25
2019-03-26T08:03:16.630Z,24.26
2019-03-26T08:05:43.313Z,24.31
2019-03-26T08:08:09.957Z,24.38
2019-03-26T08:10:36.643Z,24.42
2019-03-26T08:13:03.460Z,24.49
2019-03-26T08:15:30.109Z,24.46
2019-03-26T08:17:56.779Z,24.48
2019-03-26T08:20:23.478Z,24.44
2019-03-26T08:22:50.138Z,24.61
2019-03-26T08:25:16.778Z,24.64
2019-03-26T08:27:43.431Z,24.69
2019-03-26T08:30:10.202Z,24.74
2019-03-26T08:32:37.279Z,24.76
2019-03-26T08:35:03.591Z,24.88
2019-03-26T08:37:30.293Z,24.69
2019-03-26T08:39:56.930Z,24.85
2019-03-26T08:42:23.589Z,24.92
2019-03-26T08:44:50.342Z,24.97
2019-03-26T08:47:17.027Z,24.93
2019-03-26T08:49:43.684Z,24.96
2019-03-26T08:52:10.466Z,25.11
2019-03-26T08:54:37.104Z,25.18
2019-03-26T08:57:03.907Z,25.21
2019-03-26T08:59:30.476Z,25.25
2019-03-26T09:01:57.159Z,25.11
2019-03-26T09:04:26.764Z,25.13
2019-03-26T09:06:53.405Z,25.27
2019-03-26T09:09:20.051Z,25.26
2019-03-26T09:11:46.700Z,25.12
2019-03-26T09:14:13.384Z,24.92
2019-03-26T09:16:40.081Z,24.68
2019-03-26T09:19:06.772Z,24.56
2019-03-26T09:21:33.409Z,24.62
2019-03-26T09:24:00.871Z,24.86
2019-03-26T09:26:27.533Z,25.03
2019-03-26T09:28:54.190Z,25.02
2019-03-26T09:31:20.824Z,25.08
2019-03-26T09:33:47.600Z,25.12
2019-03-26T09:36:14.239Z,25.13
2019-03-26T09:38:40.939Z,25.10
2019-03-26T09:41:07.644Z,25.07
2019-03-26T09:43:34.277Z,25.02
2019-03-26T09:46:00.989Z,25.02
2019-03-26T09:48:27.727Z,25.00
2019-03-26T09:50:54.358Z,24.94
2019-03-26T09:53:21.021Z,24.96
2019-03-26T09:55:47.715Z,24.91
2019-03-26T09:58:14.435Z,24.88
2019-03-26T10:00:41.131Z,24.83
2019-03-26T10:03:07.758Z,24.96
2019-03-26T10:05:34.395Z,24.98
2019-03-26T10:08:01.102Z,24.97
2019-03-26T10:10:27.744Z,24.94
2019-03-26T10:12:54.392Z,25.08
2019-03-26T10:15:21.039Z,25.01
2019-03-26T10:17:47.695Z,24.93
2019-03-26T10:20:14.359Z,24.93
2019-03-26T10:22:41.008Z,25.04
2019-03-26T10:25:10.659Z,24.96
2019-03-26T10:27:35.179Z,24.94
2019-03-26T10:30:00.991Z,25.00
2019-03-26T10:32:27.682Z,24.98
2019-03-26T10:34:54.328Z,24.94
2019-03-26T10:37:20.971Z,25.03
2019-03-26T10:39:47.649Z,25.17
2019-03-26T10:42:14.380Z,25.01
2019-03-26T10:44:41.037Z,24.89
2019-03-26T10:47:07.675Z,25.03
2019-03-26T10:49:34.321Z,24.97
2019-03-26T10:52:00.979Z,25.06
2019-03-26T10:54:27.620Z,25.05
2019-03-26T10:56:54.305Z,25.07
2019-03-26T10:59:20.941Z,25.15
2019-03-26T11:01:47.603Z,25.09
2019-03-26T11:04:14.243Z,25.11
2019-03-26T11:06:40.895Z,25.08
2019-03-26T11:09:20.087Z,25.13
2019-03-26T11:11:34.330Z,25.21
2019-03-26T11:14:00.984Z,25.16
2019-03-26T11:16:27.633Z,25.23
2019-03-26T11:18:54.294Z,25.36
2019-03-26T11:21:20.940Z,25.28
2019-03-26T11:23:47.593Z,25.23
2019-03-26T11:26:14.317Z,25.21
2019-03-26T11:28:40.931Z,25.30
2019-03-26T11:31:07.595Z,25.25
2019-03-26T11:33:34.241Z,25.40
2019-03-26T11:36:00.883Z,25.44
2019-03-26T11:38:27.559Z,25.41
2019-03-26T11:40:54.217Z,25.33
2019-03-26T11:43:20.852Z,25.67
2019-03-26T11:45:48.683Z,25.44
2019-03-26T11:48:15.325Z,25.29
2019-03-26T11:50:41.964Z,25.47
2019-03-26T11:53:08.615Z,25.41
2019-03-26T11:55:35.331Z,25.40
2019-03-26T11:58:01.989Z,25.40
2019-03-26T12:00:28.666Z,25.45
2019-03-26T12:02:55.479Z,25.30
2019-03-26T12:05:22.132Z,25.47
2019-03-26T12:07:48.781Z,25.48
2019-03-26T12:10:15.421Z,25.43
2019-03-26T12:12:42.063Z,25.43
2019-03-26T12:15:08.843Z,25.45
2019-03-26T12:17:35.503Z,25.56
2019-03-26T12:20:02.164Z,25.44
2019-03-26T12:22:34.577Z,25.42
2019-03-26T12:25:01.228Z,25.37
2019-03-26T12:27:27.880Z,25.53
2019-03-26T12:29:54.528Z,25.39
2019-03-26T12:32:21.226Z,25.30
2019-03-26T12:34:47.897Z,25.47
2019-03-26T12:37:14.541Z,25.62
2019-03-26T12:39:44.070Z,25.44
2019-03-26T12:42:07.910Z,25.58
2019-03-26T12:44:34.579Z,25.45
2019-03-26T12:47:01.242Z,25.41
2019-03-26T12:49:27.895Z,25.52
2019-03-26T12:51:54.612Z,25.57
2019-03-26T12:54:23.903Z,25.42
2019-03-26T12:56:50.560Z,25.29
2019-03-26T12:59:17.245Z,25.27
2019-03-26T13:01:44.071Z,25.15
2019-03-26T13:04:13.312Z,25.13
2019-03-26T13:06:37.486Z,25.16
2019-03-26T13:09:04.138Z,25.11
2019-03-26T13:11:30.776Z,25.15
2019-03-26T13:13:57.434Z,25.12
2019-03-26T13:16:24.069Z,25.08
2019-03-26T13:18:50.706Z,25.12
2019-03-26T13:21:17.360Z,24.99
2019-03-26T13:23:43.996Z,24.89
2019-03-26T13:26:10.649Z,24.83
2019-03-26T13:28:37.293Z,24.85
2019-03-26T13:31:03.955Z,24.76
2019-03-26T13:33:30.621Z,24.82
2019-03-26T13:35:57.254Z,24.81
2019-03-26T13:38:23.908Z,24.81
2019-03-26T13:40:50.550Z,24.92
2019-03-26T13:43:17.306Z,24.82
2019-03-26T13:45:43.956Z,24.70
2019-03-26T13:48:10.605Z,24.78
2019-03-26T13:50:37.303Z,24.70
2019-03-26T13:53:03.946Z,24.83
2019-03-26T13:55:30.626Z,24.86
2019-03-26T13:57:57.330Z,24.75
2019-03-26T14:00:23.980Z,24.70
2019-03-26T14:02:50.662Z,24.84
2019-03-26T14:05:17.321Z,24.71
2019-03-26T14:07:44.003Z,24.62
2019-03-26T14:10:10.617Z,24.61
2019-03-26T14:12:37.307Z,24.58
2019-03-26T14:15:03.964Z,24.63
2019-03-26T14:17:30.578Z,24.61
2019-03-26T14:19:57.230Z,24.77
2019-03-26T14:22:23.929Z,24.86
2019-03-26T14:24:50.673Z,24.91
2019-03-26T14:27:17.306Z,24.86
2019-03-26T14:29:43.963Z,24.81
2019-03-26T14:32:10.600Z,24.79
2019-03-26T14:34:37.293Z,24.97
2019-03-26T14:37:04.033Z,24.93
2019-03-26T14:39:30.642Z,25.05
2019-03-26T14:41:57.294Z,25.20
2019-03-26T14:44:23.947Z,25.26
2019-03-26T14:46:50.602Z,25.08
2019-03-26T14:49:17.264Z,25.08
2019-03-26T14:51:43.909Z,25.01
2019-03-26T14:54:10.594Z,24.89
2019-03-26T14:56:37.240Z,24.89
2019-03-26T14:59:03.928Z,24.93
2019-03-26T15:01:30.902Z,24.97
2019-03-26T15:03:59.420Z,24.92
2019-03-26T15:06:26.072Z,24.90
2019-03-26T15:08:52.712Z,24.94
2019-03-26T15:11:19.419Z,24.89
2019-03-26T15:13:49.328Z,24.90
2019-03-26T15:16:12.826Z,24.82
2019-03-26T15:18:39.567Z,24.86
2019-03-26T15:21:06.211Z,24.80
2019-03-26T15:23:32.856Z,24.95
2019-03-26T15:25:59.498Z,24.86
2019-03-26T15:28:26.176Z,24.88
2019-03-26T15:30:52.838Z,25.00
2019-03-26T15:33:19.485Z,24.97
2019-03-26T15:35:46.153Z,24.94
2019-03-26T15:38:12.822Z,24.98
2019-03-26T15:40:39.456Z,24.84
2019-03-26T15:43:06.151Z,24.94
2019-03-26T15:45:32.792Z,24.82
2019-03-26T15:47:59.441Z,24.94
2019-03-26T15:50:26.078Z,24.80
2019-03-26T15:52:52.728Z,24.95
2019-03-26T15:55:19.449Z,24.82
2019-03-26T15:57:46.149Z,24.80
2019-03-26T16:00:12.781Z,24.89
2019-03-26T16:02:39.449Z,24.76
2019-03-26T16:05:06.086Z,24.77
2019-03-26T16:07:33.222Z,24.76
2019-03-26T16:09:59.574Z,24.95
2019-03-26T16:12:26.244Z,24.83
2019-03-26T16:14:52.913Z,24.94
2019-03-26T16:17:19.607Z,24.79
2019-03-26T16:19:46.250Z,24.74
2019-03-26T16:22:12.928Z,24.70
2019-03-26T16:24:39.567Z,24.71
2019-03-26T16:27:06.210Z,24.71
2019-03-26T16:29:32.877Z,24.71
2019-03-26T16:31:59.553Z,24.65
2019-03-26T16:34:27.463Z,24.64
2019-03-26T16:36:59.330Z,24.72
2019-03-26T16:39:19.537Z,24.75
2019-03-26T16:41:49.325Z,24.63
2019-03-26T16:44:12.849Z,24.50
2019-03-26T16:46:39.513Z,24.62
2019-03-26T16:49:06.151Z,24.59
2019-03-26T16:51:32.830Z,24.62
2019-03-26T16:53:59.539Z,24.58
2019-03-26T16:56:26.193Z,24.63
2019-03-26T16:58:52.845Z,24.49
2019-03-26T17:01:19.496Z,24.59
2019-03-26T17:03:46.182Z,24.55
2019-03-26T17:06:12.813Z,24.64
2019-03-26T17:08:39.505Z,24.52
2019-03-26T17:11:06.148Z,24.58
2019-03-26T17:13:32.789Z,24.52
2019-03-26T17:15:59.433Z,24.32
2019-03-26T17:18:26.099Z,24.15
2019-03-26T17:20:52.752Z,24.00
2019-03-26T17:23:19.394Z,23.96
2019-03-26T17:25:46.077Z,23.98
2019-03-26T17:28:12.711Z,24.09
2019-03-26T17:30:39.351Z,24.21
2019-03-26T17:33:06.001Z,24.23
2019-03-26T17:35:32.641Z,24.30
2019-03-26T17:38:00.380Z,24.36
2019-03-26T17:40:25.955Z,24.40
2019-03-26T17:42:52.636Z,24.40
2019-03-26T17:45:19.279Z,24.36
2019-03-26T17:47:45.924Z,24.40
2019-03-26T17:50:12.563Z,24.40
2019-03-26T17:52:42.137Z,24.31
2019-03-26T17:55:08.877Z,24.31
2019-03-26T17:57:35.577Z,24.34
2019-03-26T18:00:02.261Z,24.28
2019-03-26T18:02:28.936Z,24.31
2019-03-26T18:04:55.627Z,24.31
2019-03-26T18:07:22.272Z,24.31
2019-03-26T18:09:48.907Z,24.29
2019-03-26T18:12:15.582Z,24.24
2019-03-26T18:14:42.191Z,24.28
2019-03-26T18:17:08.871Z,24.28
2019-03-26T18:19:35.514Z,24.25
2019-03-26T18:22:02.189Z,24.32
2019-03-26T18:24:30.814Z,24.25
2019-03-26T18:26:57.555Z,24.18
2019-03-26T18:29:24.155Z,24.26
2019-03-26T18:31:50.799Z,24.23
2019-03-26T18:34:17.460Z,24.24
2019-03-26T18:36:44.100Z,24.21
2019-03-26T18:39:10.738Z,24.22
2019-03-26T18:41:37.400Z,24.22
2019-03-26T18:44:04.038Z,24.22
2019-03-26T18:46:30.722Z,24.17
2019-03-26T18:48:57.386Z,24.17
2019-03-26T18:51:24.031Z,24.17
2019-03-26T18:53:50.720Z,24.16
2019-03-26T18:56:17.350Z,24.17
2019-03-26T18:58:44.040Z,24.20
2019-03-26T19:01:10.679Z,24.17
2019-03-26T19:03:37.352Z,24.14
2019-03-26T19:06:04.092Z,24.13
2019-03-26T19:08:30.776Z,24.14
2019-03-26T19:10:57.498Z,24.10
2019-03-26T19:13:24.119Z,24.12
2019-03-26T19:15:50.752Z,24.10
2019-03-26T19:18:17.392Z,24.12
2019-03-26T19:20:44.032Z,24.08
2019-03-26T19:23:10.688Z,24.09
2019-03-26T19:25:37.325Z,24.06
2019-03-26T19:28:04.016Z,24.07
2019-03-26T19:30:30.651Z,24.04
2019-03-26T19:32:57.811Z,24.04
2019-03-26T19:35:23.960Z,24.03
2019-03-26T19:37:50.605Z,24.03
2019-03-26T19:40:17.243Z,24.03
2019-03-26T19:42:43.932Z,24.02
2019-03-26T19:45:10.576Z,24.03
2019-03-26T19:47:37.224Z,24.05
2019-03-26T19:50:03.866Z,24.01
2019-03-26T19:52:30.547Z,24.02
2019-03-26T19:54:57.293Z,24.00
2019-03-26T19:57:23.979Z,24.04
2019-03-26T19:59:50.630Z,24.01
2019-03-26T20:02:17.271Z,24.01
2019-03-26T20:04:43.915Z,24.00
2019-03-26T20:07:10.600Z,23.99
2019-03-26T20:09:37.247Z,24.01
2019-03-26T20:12:03.879Z,23.99
2019-03-26T20:14:30.526Z,23.99
2019-03-26T20:16:57.158Z,23.98
2019-03-26T20:19:23.853Z,23.99
2019-03-26T20:21:52.474Z,23.97
2019-03-26T20:24:19.114Z,23.97
2019-03-26T20:26:45.829Z,23.95
2019-03-26T20:29:12.470Z,23.95
2019-03-26T20:31:39.144Z,23.92
2019-03-26T20:34:05.798Z,23.95
2019-03-26T20:36:32.483Z,23.95
2019-03-26T20:38:59.120Z,23.93
2019-03-26T20:41:25.756Z,23.92
2019-03-26T20:43:52.404Z,23.95
2019-03-26T20:46:19.079Z,23.91
2019-03-26T20:48:45.725Z,23.92
2019-03-26T20:51:12.365Z,23.89
2019-03-26T20:53:39.044Z,23.90
2019-03-26T20:56:05.692Z,23.85
2019-03-26T20:58:32.379Z,23.86
2019-03-26T21:00:59.025Z,23.85
2019-03-26T21:03:25.671Z,23.87
2019-03-26T21:05:52.336Z,23.85
2019-03-26T21:08:19.009Z,23.85
2019-03-26T21:10:45.647Z,23.81
2019-03-26T21:13:12.323Z,23.81
2019-03-26T21:15:38.961Z,23.79
2019-03-26T21:18:05.607Z,23.81
2019-03-26T21:20:32.239Z,23.79
2019-03-26T21:22:58.938Z,23.80
2019-03-26T21:25:25.581Z,23.76
2019-03-26T21:27:52.277Z,23.78
2019-03-26T21:30:18.918Z,23.75
2019-03-26T21:32:45.607Z,23.77
2019-03-26T21:35:12.272Z,23.73
2019-03-26T21:37:38.899Z,23.72
2019-03-26T21:40:05.652Z,23.72
2019-03-26T21:42:32.274Z,23.73
2019-03-26T21:44:58.913Z,23.71
2019-03-26T21:47:25.651Z,23.74
2019-03-26T21:49:52.302Z,23.74
2019-03-26T21:52:18.937Z,23.72
2019-03-26T21:54:45.574Z,23.73
2019-03-26T21:57:12.255Z,23.73
2019-03-26T21:59:38.898Z,23.71
2019-03-26T22:02:05.573Z,23.72
2019-03-26T22:04:32.205Z,23.68
2019-03-26T22:06:58.891Z,23.70
2019-03-26T22:09:25.537Z,23.68
2019-03-26T22:11:52.217Z,23.68
2019-03-26T22:14:18.906Z,23.66
2019-03-26T22:16:45.560Z,23.68
2019-03-26T22:19:12.327Z,23.67
2019-03-26T22:21:38.883Z,23.65
2019-03-26T22:24:05.563Z,23.67
2019-03-26T22:26:32.226Z,23.66
2019-03-26T22:28:58.887Z,23.67
2019-03-26T22:31:25.522Z,23.67
2019-03-26T22:33:52.164Z,23.67
2019-03-26T22:36:18.797Z,23.66
2019-03-26T22:38:45.470Z,23.65
2019-03-26T22:41:12.243Z,23.63
2019-03-26T22:43:38.881Z,23.66
2019-03-26T22:46:05.565Z,23.64
2019-03-26T22:48:32.241Z,23.63
2019-03-26T22:50:58.880Z,23.61
2019-03-26T22:53:25.550Z,23.63
2019-03-26T22:55:52.188Z,23.62
2019-03-26T22:58:18.865Z,23.61
2019-03-26T23:00:45.509Z,23.61
2019-03-26T23:03:12.200Z,23.63
2019-03-26T23:05:38.847Z,23.63
2019-03-26T23:08:05.481Z,23.64
2019-03-26T23:10:32.177Z,23.61
2019-03-26T23:12:58.813Z,23.62
2019-03-26T23:15:25.565Z,23.63
2019-03-26T23:17:52.231Z,23.63
2019-03-26T23:20:18.879Z,23.58
2019-03-26T23:22:45.527Z,23.55
2019-03-26T23:25:12.167Z,23.57
2019-03-26T23:27:38.819Z,23.58
2019-03-26T23:30:05.466Z,23.56
2019-03-26T23:32:32.105Z,23.54
2019-03-26T23:34:58.744Z,23.54
2019-03-26T23:37:25.439Z,23.56
2019-03-26T23:39:52.134Z,23.54
2019-03-26T23:42:18.757Z,23.56
2019-03-26T23:44:57.788Z,23.53
2019-03-26T23:47:12.108Z,23.54
2019-03-26T23:49:38.745Z,23.52
2019-03-26T23:52:05.417Z,23.53
2019-03-26T23:54:32.079Z,23.52
2019-03-26T23:56:58.736Z,23.52
2019-03-26T23:59:25.369Z,23.52
